Time;durP1;ratioP1;P1;durP2;ratioP2;P2;SDS_P1;SDS_P2;PMS_P1;PMS_P2;Temp;Humidity;BMP_temperature;BMP_pressure;BME280_temperature;BME280_humidity;BME280_pressure;Samples;Min_cycle;Max_cycle;Signal;HPM_P1;HPM_P2
2023/06/02 00:01:04;;;;;;;;;;;17.70;49.50;;;13.71;95.44;95304.28;5011959;28;20351;-47
2023/06/02 00:03:36;;;;;;;;;;;17.70;49.60;;;13.70;95.38;95302.69;5014251;28;20198;-50
2023/06/02 00:06:08;;;;;;;;;;;17.70;49.70;;;13.71;95.56;95300.81;5016312;28;19909;-50
2023/06/02 00:08:36;;;;;;;;;;;17.70;49.80;;;13.68;96.20;95298.72;5015281;28;20003;-47
2023/06/02 00:11:02;;;;;;;;;;;17.60;49.80;;;13.68;96.01;95304.06;5015577;28;19913;-53
2023/06/02 00:13:28;;;;;;;;;;;17.60;49.90;;;13.66;96.81;95301.66;5014307;28;19913;-51
2023/06/02 00:15:54;;;;;;;;;;;17.60;50.00;;;13.65;96.85;95294.72;5014686;28;19909;-48
2023/06/02 00:18:22;;;;;;;;;;;17.60;50.10;;;13.65;96.90;95300.88;5031363;28;19913;-47
2023/06/02 00:20:49;;;;;;;;;;;17.60;50.20;;;13.65;97.10;95294.72;5014348;28;20276;-50
2023/06/02 00:23:24;;;;;;;;;;;17.60;50.20;;;13.68;96.96;95296.03;5030395;28;19909;-46
2023/06/02 00:25:50;;;;;;;;;;;17.60;50.30;;;13.67;96.74;95297.91;5013613;28;20295;-46
2023/06/02 00:28:15;;;;;;;;;;;17.60;50.40;;;13.67;96.62;95291.78;5013654;28;19917;-48
2023/06/02 00:30:41;;;;;;;;;;;17.60;50.40;;;13.69;96.59;95285.03;5015026;28;19959;-47
2023/06/02 00:33:07;;;;;;;;;;;17.60;50.50;;;13.68;96.25;95290.69;5013625;28;19916;-48
2023/06/02 00:35:33;;;;;;;;;;;17.60;50.60;;;13.64;96.61;95293.16;5013671;28;19940;-49
2023/06/02 00:38:04;;;;;;;;;;;17.60;50.70;;;13.60;97.04;95295.63;5014169;28;20380;-51
2023/06/02 00:40:30;;;;;;;;;;;17.60;50.70;;;13.60;96.77;95289.44;5015018;28;19913;-48
2023/06/02 00:42:56;;;;;;;;;;;17.50;50.70;;;13.57;97.45;95296.19;5015135;28;19909;-51
2023/06/02 00:45:22;;;;;;;;;;;17.50;50.80;;;13.57;97.40;95298.88;5013834;28;19964;-47
2023/06/02 00:47:48;;;;;;;;;;;17.50;50.90;;;13.56;97.61;95296.47;5014620;28;20011;-46
2023/06/02 00:50:14;;;;;;;;;;;17.50;51.00;;;13.54;97.45;95299.44;5008726;28;19909;-47
2023/06/02 00:52:40;;;;;;;;;;;17.50;51.10;;;13.49;98.44;95296.03;5008450;28;19916;-47
2023/06/02 00:55:07;;;;;;;;;;;17.50;51.10;;;13.45;99.08;95303.06;5029840;28;20371;-48
2023/06/02 00:57:34;;;;;;;;;;;17.50;51.10;;;13.43;99.45;95295.31;5012771;28;19956;-48
2023/06/02 01:00:04;;;;;;;;;;;17.40;51.10;;;13.45;98.95;95295.84;5014508;28;19919;-47
2023/06/02 01:02:31;;;;;;;;;;;17.40;51.20;;;13.45;98.88;95295.84;5013175;28;20433;-46
2023/06/02 01:04:57;;;;;;;;;;;17.40;51.40;;;13.41;99.37;95300.97;5014318;28;19916;-53
2023/06/02 01:07:27;;;;;;;;;;;17.40;51.30;;;13.42;99.16;95299.09;5014685;28;19909;-46
2023/06/02 01:10:03;;;;;;;;;;;17.40;51.40;;;13.38;99.38;95298.06;5028559;28;19909;-46
2023/06/02 01:12:29;;;;;;;;;;;17.30;51.40;;;13.31;100.00;95292.28;5013949;28;19984;-46
2023/06/02 01:14:55;;;;;;;;;;;17.30;51.50;;;13.27;100.00;95297.41;5012275;28;19909;-53
2023/06/02 01:17:30;;;;;;;;;;;17.30;51.60;;;13.24;99.71;95297.94;5014231;28;20270;-51
2023/06/02 01:20:05;;;;;;;;;;;17.30;51.70;;;13.20;99.42;95299.63;5028212;28;19916;-50
2023/06/02 01:22:57;;;;;;;;;;;17.20;51.70;;;13.15;99.64;95294.31;5012775;28;20320;-47
2023/06/02 01:25:27;;;;;;;;;;;17.20;51.80;;;13.08;99.77;95294.69;5026571;28;20371;-47
2023/06/02 01:27:56;;;;;;;;;;;17.10;51.80;;;13.05;100.00;95295.25;5012984;28;19917;-46
2023/06/02 01:30:22;;;;;;;;;;;17.10;51.90;;;13.02;100.00;95292.38;5014082;28;19963;-48
2023/06/02 01:33:19;;;;;;;;;;;17.10;52.10;;;12.98;100.00;95294.81;5028173;28;19912;-46
2023/06/02 01:35:54;;;;;;;;;;;17.00;52.20;;;12.96;100.00;95286.28;5012773;28;19913;-46
2023/06/02 01:38:23;;;;;;;;;;;17.00;52.30;;;12.95;100.00;95290.03;5009265;28;20043;-51
2023/06/02 01:40:54;;;;;;;;;;;17.00;52.30;;;12.93;100.00;95294.88;5012532;28;19916;-48
2023/06/02 01:43:20;;;;;;;;;;;16.90;52.40;;;12.85;100.00;95293.63;5013547;28;19913;-46
2023/06/02 01:45:46;;;;;;;;;;;16.90;52.50;;;12.84;100.00;95294.69;5012566;28;19909;-46
2023/06/02 01:48:13;;;;;;;;;;;16.90;52.50;;;12.80;100.00;95301.69;5028631;28;19962;-48
2023/06/02 01:50:39;;;;;;;;;;;16.90;52.60;;;12.76;100.00;95298.00;5012195;28;19909;-49
2023/06/02 01:53:06;;;;;;;;;;;16.80;52.60;;;12.73;100.00;95296.69;5028543;28;19916;-48
2023/06/02 01:55:32;;;;;;;;;;;16.80;52.70;;;12.72;100.00;95295.13;5013458;28;19982;-47
2023/06/02 01:57:58;;;;;;;;;;;16.80;52.80;;;12.69;100.00;95298.38;5011759;28;19916;-49
2023/06/02 02:00:23;;;;;;;;;;;16.70;52.80;;;12.67;100.00;95297.84;5013413;28;19909;-52
2023/06/02 02:02:50;;;;;;;;;;;16.70;52.90;;;12.64;100.00;95290.38;5011761;28;20376;-49
2023/06/02 02:05:16;;;;;;;;;;;16.70;53.00;;;12.61;100.00;95287.50;5013218;28;20002;-48
2023/06/02 02:07:42;;;;;;;;;;;16.60;53.00;;;12.58;100.00;95294.19;5012027;28;20387;-52
2023/06/02 02:10:12;;;;;;;;;;;16.60;53.10;;;12.55;100.00;95288.63;5013234;28;20015;-46
2023/06/02 02:12:39;;;;;;;;;;;16.60;53.10;;;12.51;100.00;95293.75;5012219;28;19917;-50
2023/06/02 02:15:06;;;;;;;;;;;16.60;53.20;;;12.48;100.00;95287.09;5011124;28;19909;-46
2023/06/02 02:17:33;;;;;;;;;;;16.60;53.30;;;12.45;100.00;95289.53;5013653;28;20405;-51
2023/06/02 02:20:00;;;;;;;;;;;16.50;53.30;;;12.41;100.00;95291.16;5012898;28;19932;-53
2023/06/02 02:22:26;;;;;;;;;;;16.50;53.30;;;12.38;100.00;95283.72;5012948;28;19909;-51
2023/06/02 02:24:52;;;;;;;;;;;16.50;53.40;;;12.35;100.00;95290.44;5012747;28;19919;-52
2023/06/02 02:27:18;;;;;;;;;;;16.40;53.40;;;12.32;100.00;95288.31;5004659;28;19909;-53
2023/06/02 02:29:44;;;;;;;;;;;16.40;53.50;;;12.26;100.00;95284.13;5012794;28;20287;-49
2023/06/02 02:32:10;;;;;;;;;;;16.30;53.60;;;12.20;100.00;95287.91;5011348;28;20367;-51
2023/06/02 02:34:38;;;;;;;;;;;16.30;53.60;;;12.14;100.00;95283.69;5012638;28;19909;-53
2023/06/02 02:37:06;;;;;;;;;;;16.30;53.70;;;12.09;100.00;95291.72;5012596;28;19910;-47
2023/06/02 02:39:33;;;;;;;;;;;16.30;53.70;;;12.09;100.00;95283.72;5011368;28;19913;-49
2023/06/02 02:42:00;;;;;;;;;;;16.20;53.80;;;12.12;100.00;95288.50;5012626;28;20402;-52
2023/06/02 02:44:26;;;;;;;;;;;16.20;53.90;;;12.13;100.00;95285.56;5011485;28;19933;-50
2023/06/02 02:46:51;;;;;;;;;;;16.20;54.00;;;12.10;100.00;95288.00;5012499;28;19986;-51
2023/06/02 02:49:17;;;;;;;;;;;16.20;54.00;;;12.06;100.00;95293.09;5012013;28;19909;-53
2023/06/02 02:51:43;;;;;;;;;;;16.10;54.00;;;12.01;100.00;95288.59;5011188;28;19920;-52
2023/06/02 02:54:09;;;;;;;;;;;16.10;54.10;;;11.98;100.00;95289.16;5012397;28;19931;-51
2023/06/02 02:56:36;;;;;;;;;;;16.10;54.20;;;11.95;100.00;95291.59;5011258;28;20007;-53
2023/06/02 02:59:02;;;;;;;;;;;16.00;54.30;;;11.92;100.00;95294.81;5012108;28;19909;-48
2023/06/02 03:01:29;;;;;;;;;;;16.00;54.30;;;11.90;100.00;95291.63;5013092;28;19932;-53
2023/06/02 03:03:56;;;;;;;;;;;16.00;54.40;;;11.86;100.00;95294.06;5011801;28;20287;-53
2023/06/02 03:06:28;;;;;;;;;;;15.90;54.50;;;11.82;100.00;95293.81;5013270;28;19909;-53
2023/06/02 03:08:54;;;;;;;;;;;15.90;54.60;;;11.79;100.00;95291.69;5004137;28;19909;-52
2023/06/02 03:11:21;;;;;;;;;;;15.90;54.60;;;11.78;100.00;95299.97;5023152;23;20286;-47
2023/06/02 03:13:47;;;;;;;;;;;15.90;54.70;;;11.73;100.00;95295.47;4989746;28;19921;-50
2023/06/02 03:16:13;;;;;;;;;;;15.80;54.80;;;11.70;100.00;95285.34;4991579;28;19917;-49
2023/06/02 03:18:39;;;;;;;;;;;15.80;54.80;;;11.68;100.00;95289.38;4991323;28;19909;-49
2023/06/02 03:21:06;;;;;;;;;;;15.80;54.90;;;11.63;100.00;95295.56;4988609;28;19996;-51
2023/06/02 03:23:31;;;;;;;;;;;15.80;54.90;;;11.61;100.00;95291.56;4992592;28;19917;-51
2023/06/02 03:26:00;;;;;;;;;;;15.70;55.00;;;11.60;100.00;95295.31;4990766;28;19909;-50
2023/06/02 03:28:25;;;;;;;;;;;15.70;55.00;;;11.57;100.00;95291.31;4992093;28;19916;-53
2023/06/02 03:30:51;;;;;;;;;;;15.70;55.20;;;11.55;100.00;95288.91;4992385;28;19913;-48
2023/06/02 03:33:17;;;;;;;;;;;15.70;55.20;;;11.55;100.00;95290.78;5006391;28;19959;-52
2023/06/02 03:35:43;;;;;;;;;;;15.70;55.30;;;11.52;100.00;95292.13;4992534;28;19956;-50
2023/06/02 03:38:08;;;;;;;;;;;15.70;55.30;;;11.53;100.00;95293.75;4994086;28;20294;-49
2023/06/02 03:40:34;;;;;;;;;;;15.70;55.40;;;11.52;100.00;95294.81;4996196;28;19909;-53
2023/06/02 03:43:00;;;;;;;;;;;15.70;55.40;;;11.52;100.00;95292.13;4996189;28;19913;-49
2023/06/02 03:45:26;;;;;;;;;;;15.60;55.50;;;11.53;100.00;95291.09;4995370;28;19909;-48
2023/06/02 03:47:51;;;;;;;;;;;15.70;55.50;;;11.55;100.00;95290.78;4996109;28;19916;-52
2023/06/02 03:50:17;;;;;;;;;;;15.70;55.60;;;11.54;100.00;95295.34;4995444;28;20452;-51
2023/06/02 03:52:43;;;;;;;;;;;15.60;55.60;;;11.56;100.00;95300.38;4995951;28;19925;-47
2023/06/02 03:55:09;;;;;;;;;;;15.70;55.70;;;11.57;100.00;95302.78;4996070;28;19999;-52
2023/06/02 03:57:34;;;;;;;;;;;15.70;55.70;;;11.58;100.00;95307.03;4995200;28;20352;-47
2023/06/02 04:00:00;;;;;;;;;;;15.70;56.30;;;11.57;100.00;95302.78;4996349;28;19913;-53
2023/06/02 04:02:26;;;;;;;;;;;15.70;55.70;;;11.58;100.00;95303.56;4994987;28;19909;-50
2023/06/02 04:04:52;;;;;;;;;;;15.70;55.80;;;11.56;100.00;95311.88;4996009;28;19981;-49
2023/06/02 04:07:18;;;;;;;;;;;15.80;55.80;;;11.57;100.00;95305.44;4995879;28;19917;-53
2023/06/02 04:09:43;;;;;;;;;;;15.80;55.80;;;11.60;100.00;95312.09;4995020;28;19952;-54
2023/06/02 04:12:09;;;;;;;;;;;15.80;55.80;;;11.62;100.00;95304.59;4995406;28;19918;-51
2023/06/02 04:14:35;;;;;;;;;;;15.80;55.80;;;11.69;100.00;95306.97;4994927;28;19909;-53
2023/06/02 04:17:01;;;;;;;;;;;15.80;55.80;;;11.78;100.00;95315.97;4995703;28;19917;-50
2023/06/02 04:19:26;;;;;;;;;;;15.90;55.90;;;11.78;100.00;95315.97;4995740;28;19917;-53
2023/06/02 04:21:53;;;;;;;;;;;15.90;56.00;;;11.80;100.00;95319.97;4994953;28;19909;-54
2023/06/02 04:24:19;;;;;;;;;;;15.90;55.90;;;11.93;100.00;95325.78;4995548;28;19909;-50
2023/06/02 04:26:46;;;;;;;;;;;16.00;56.00;;;12.13;100.00;95317.59;4994574;28;19916;-48
2023/06/02 04:29:12;;;;;;;;;;;16.10;56.00;;;12.37;100.00;95316.84;4995595;28;19909;-49
2023/06/02 04:31:45;;;;;;;;;;;16.20;56.10;;;12.58;100.00;95317.44;4995349;28;19913;-52
2023/06/02 04:34:12;;;;;;;;;;;16.30;56.10;;;12.83;100.00;95327.06;4994766;28;19953;-53
2023/06/02 04:36:41;;;;;;;;;;;16.50;56.10;;;13.03;100.00;95326.81;4995450;28;20011;-51
2023/06/02 04:39:09;;;;;;;;;;;16.70;56.10;;;13.24;100.00;95323.91;4994751;28;20287;-53
2023/06/02 04:41:36;;;;;;;;;;;16.80;56.00;;;13.43;100.00;95330.09;4995430;28;19909;-53
2023/06/02 04:44:03;;;;;;;;;;;17.00;56.00;;;13.64;100.00;95326.06;4994572;28;20409;-51
2023/06/02 04:46:29;;;;;;;;;;;17.30;55.90;;;13.86;100.00;95332.72;4995222;28;19910;-52
2023/06/02 04:48:55;;;;;;;;;;;17.50;55.80;;;14.12;100.00;95333.09;4994111;28;19916;-49
2023/06/02 04:51:29;;;;;;;;;;;17.70;55.70;;;14.26;97.61;95331.28;4993813;28;19917;-51
2023/06/02 04:53:55;;;;;;;;;;;17.90;55.60;;;14.38;95.50;95327.31;4995258;28;19910;-50
2023/06/02 04:56:23;;;;;;;;;;;18.10;55.40;;;14.57;95.11;95333.44;5009218;28;20394;-54
2023/06/02 04:58:49;;;;;;;;;;;18.30;55.20;;;14.81;94.01;95336.75;4995133;28;20295;-48
2023/06/02 05:01:15;;;;;;;;;;;18.60;55.10;;;15.06;92.04;95331.97;4994884;28;19909;-51
2023/06/02 05:03:40;;;;;;;;;;;18.80;55.00;;;15.22;91.05;95337.84;4993902;28;19963;-50
2023/06/02 05:06:06;;;;;;;;;;;19.00;54.80;;;15.42;89.93;95336.63;4994806;28;20406;-51
2023/06/02 05:08:32;;;;;;;;;;;19.30;54.60;;;15.56;89.54;95339.28;4993921;28;19959;-49
2023/06/02 05:10:58;;;;;;;;;;;19.50;54.40;;;15.71;87.80;95342.44;4994640;28;20387;-53
2023/06/02 05:13:24;;;;;;;;;;;19.80;54.30;;;15.80;87.74;95345.22;4993516;28;20367;-50
2023/06/02 05:15:50;;;;;;;;;;;20.00;54.00;;;16.01;87.95;95347.44;4992563;28;19909;-50
2023/06/02 05:18:17;;;;;;;;;;;20.20;53.80;;;16.19;85.43;95341.88;4993245;28;19933;-57
2023/06/02 05:20:43;;;;;;;;;;;20.50;53.60;;;16.46;84.29;95340.16;4987788;28;19909;-51
2023/06/02 05:23:08;;;;;;;;;;;20.70;53.40;;;16.70;81.92;95345.19;4986254;28;19917;-53
2023/06/02 05:25:34;;;;;;;;;;;21.00;53.20;;;16.91;79.09;95353.53;4993583;28;19940;-53
2023/06/02 05:28:00;;;;;;;;;;;21.30;53.00;;;17.21;79.52;95346.53;4993217;28;19910;-55
2023/06/02 05:30:26;;;;;;;;;;;21.50;52.80;;;17.52;79.20;95357.22;4987865;28;20006;-51
2023/06/02 05:32:52;;;;;;;;;;;21.80;52.60;;;17.78;78.37;95354.59;4983275;28;19920;-55
2023/06/02 05:35:17;;;;;;;;;;;22.10;52.30;;;18.07;76.65;95352.41;4992004;28;19920;-49
2023/06/02 05:37:43;;;;;;;;;;;22.40;52.10;;;18.31;73.92;95363.50;4992063;28;19909;-52
2023/06/02 05:40:10;;;;;;;;;;;22.70;51.80;;;18.54;71.14;95352.50;4992398;28;19913;-50
2023/06/02 05:42:36;;;;;;;;;;;22.90;51.50;;;18.67;69.87;95362.31;4993416;28;20441;-51
2023/06/02 05:45:05;;;;;;;;;;;23.20;51.10;;;18.88;69.21;95351.66;4990870;28;19949;-53
2023/06/02 05:47:34;;;;;;;;;;;23.50;50.80;;;19.08;67.48;95352.84;4992549;28;19937;-51
2023/06/02 05:50:00;;;;;;;;;;;23.80;50.40;;;19.15;66.13;95347.75;4992110;28;20268;-51
2023/06/02 05:52:26;;;;;;;;;;;24.00;50.10;;;19.31;65.44;95345.28;4992882;28;20391;-55
2023/06/02 05:54:53;;;;;;;;;;;24.20;50.30;;;19.47;65.58;95348.22;4992952;28;19913;-53
2023/06/02 05:57:18;;;;;;;;;;;24.40;49.40;;;19.63;64.61;95346.53;4992246;28;19913;-53
2023/06/02 05:59:45;;;;;;;;;;;24.50;49.00;;;19.85;63.91;95331.94;4992675;28;20391;-50
2023/06/02 06:02:11;;;;;;;;;;;24.70;48.80;;;20.11;63.97;95339.84;4991807;28;22471;-53
2023/06/02 06:04:37;;;;;;;;;;;24.90;48.50;;;20.22;62.68;95337.53;4992934;28;19917;-53
2023/06/02 06:07:04;;;;;;;;;;;25.10;48.20;;;20.40;62.41;95341.66;4992839;28;19914;-51
2023/06/02 06:09:30;;;;;;;;;;;25.30;48.10;;;20.55;61.56;95337.56;4991802;28;19909;-51
2023/06/02 06:11:55;;;;;;;;;;;25.50;47.80;;;20.77;60.69;95339.06;4924995;28;1954281;-56
2023/06/02 06:14:22;;;;;;;;;;;25.70;47.60;;;20.72;60.78;95334.69;4991363;28;19918;-52
2023/06/02 06:16:47;;;;;;;;;;;25.90;47.30;;;20.85;60.66;95343.59;4993463;28;19920;-50
2023/06/02 06:19:13;;;;;;;;;;;26.00;47.00;;;21.01;59.98;95339.13;4992213;28;19909;-55
2023/06/02 06:21:39;;;;;;;;;;;26.20;46.70;;;21.31;58.13;95341.63;4992519;28;20360;-52
2023/06/02 06:24:08;;;;;;;;;;;26.40;47.10;;;21.47;57.00;95337.13;4993312;28;19913;-51
2023/06/02 06:26:34;;;;;;;;;;;26.60;46.30;;;21.62;56.38;95335.66;4992281;28;19936;-53
2023/06/02 06:28:59;;;;;;;;;;;26.80;46.00;;;21.71;56.01;95336.28;4993366;28;20282;-50
2023/06/02 06:31:25;;;;;;;;;;;27.00;45.70;;;21.88;54.93;95348.03;4993002;28;19913;-52
2023/06/02 06:33:52;;;;;;;;;;;27.20;45.50;;;21.99;54.61;95338.28;4992215;28;20295;-50
2023/06/02 06:36:18;;;;;;;;;;;27.50;45.20;;;22.28;54.08;95348.06;4993152;28;20044;-51
2023/06/02 06:38:44;;;;;;;;;;;27.60;44.90;;;22.41;53.64;95351.50;4992174;28;20397;-54
2023/06/02 06:41:09;;;;;;;;;;;27.90;44.60;;;22.70;53.57;95344.91;4993103;28;19909;-52
2023/06/02 06:43:35;;;;;;;;;;;28.10;44.30;;;22.74;51.96;95345.78;4993057;28;19910;-52
2023/06/02 06:46:01;;;;;;;;;;;28.30;44.00;;;22.85;51.97;95354.22;4981088;28;19914;-51
2023/06/02 06:48:27;;;;;;;;;;;28.40;43.60;;;23.01;52.03;95354.28;4987721;28;19917;-52
2023/06/02 06:50:54;;;;;;;;;;;28.60;43.40;;;23.12;50.65;95358.03;4983054;28;19920;-52
2023/06/02 06:53:20;;;;;;;;;;;28.70;43.10;;;23.33;50.56;95357.78;4992274;28;19937;-52
2023/06/02 06:55:46;;;;;;;;;;;28.90;42.90;;;23.41;49.99;95356.81;4992287;28;20295;-55
2023/06/02 06:58:12;;;;;;;;;;;29.00;42.50;;;23.47;48.69;95354.59;4992544;28;20387;-51
2023/06/02 07:00:38;;;;;;;;;;;29.20;42.20;;;23.39;48.33;95359.09;4992794;28;19945;-52
2023/06/02 07:03:04;;;;;;;;;;;29.30;41.90;;;23.51;49.15;95358.22;4991331;28;19909;-48
2023/06/02 07:05:30;;;;;;;;;;;29.40;41.70;;;23.42;48.54;95360.31;4992786;28;19917;-52
2023/06/02 07:07:56;;;;;;;;;;;29.50;41.50;;;23.48;48.38;95356.19;4978690;28;19917;-48
2023/06/02 07:10:22;;;;;;;;;;;29.60;41.20;;;23.53;46.29;95362.16;4991480;28;19910;-52
2023/06/02 07:12:49;;;;;;;;;;;29.70;40.90;;;23.70;46.47;95361.00;4991584;28;19917;-53
2023/06/02 07:15:15;;;;;;;;;;;29.70;40.60;;;23.85;46.41;95359.41;4991397;28;20375;-51
2023/06/02 07:17:42;;;;;;;;;;;29.80;40.40;;;23.73;45.98;95365.75;4992661;28;20389;-52
2023/06/02 07:20:10;;;;;;;;;;;29.90;40.10;;;24.01;46.08;95364.81;4991635;28;20071;-52
2023/06/02 07:22:36;;;;;;;;;;;29.90;39.80;;;24.19;47.33;95376.03;4992543;28;20311;-54
2023/06/02 07:25:06;;;;;;;;;;;30.00;39.60;;;24.26;46.22;95370.78;4992334;28;19916;-56
2023/06/02 07:27:32;;;;;;;;;;;30.20;39.50;;;24.29;45.92;95369.25;4991468;28;20031;-56
2023/06/02 07:29:59;;;;;;;;;;;30.30;39.30;;;24.46;46.38;95364.19;4992488;28;19951;-52
2023/06/02 07:32:25;;;;;;;;;;;30.40;39.10;;;24.78;45.65;95366.75;4991388;28;19914;-49
2023/06/02 07:34:51;;;;;;;;;;;30.50;39.10;;;24.76;44.84;95360.88;4992503;28;19913;-55
2023/06/02 07:37:17;;;;;;;;;;;30.70;38.90;;;24.85;45.61;95360.63;4992529;28;19914;-53
2023/06/02 07:39:43;;;;;;;;;;;30.80;38.70;;;24.98;45.39;95370.25;4991455;28;19916;-51
2023/06/02 07:42:09;;;;;;;;;;;30.90;38.40;;;25.14;44.99;95370.16;4992237;28;19915;-55
2023/06/02 07:44:34;;;;;;;;;;;31.00;38.30;;;25.34;44.77;95370.88;4991550;28;19910;-53
2023/06/02 07:47:00;;;;;;;;;;;31.20;38.20;;;25.48;44.07;95375.75;4992324;28;20087;-52
2023/06/02 07:49:26;;;;;;;;;;;31.30;38.00;;;25.55;44.11;95370.44;4992106;28;19909;-51
2023/06/02 07:51:52;;;;;;;;;;;31.50;38.60;;;25.73;43.73;95366.03;4991297;28;19914;-51
2023/06/02 07:54:18;;;;;;;;;;;31.60;37.60;;;25.94;42.70;95365.56;4992249;28;19909;-50
2023/06/02 07:56:43;;;;;;;;;;;31.70;37.40;;;25.80;42.62;95365.34;4991306;28;19916;-50
2023/06/02 07:59:11;;;;;;;;;;;31.90;37.20;;;25.67;43.33;95372.19;4992316;28;19933;-52
2023/06/02 08:01:38;;;;;;;;;;;32.00;36.90;;;25.87;42.99;95370.16;4992116;28;19909;-52
2023/06/02 08:04:04;;;;;;;;;;;32.00;36.70;;;26.02;43.14;95367.25;4991050;28;19910;-51
2023/06/02 08:06:30;;;;;;;;;;;32.10;36.50;;;26.44;41.49;95370.91;4991055;28;19913;-53
2023/06/02 08:08:56;;;;;;;;;;;32.20;36.50;;;26.44;41.74;95368.16;4991449;28;20299;-54
2023/06/02 08:11:22;;;;;;;;;;;32.30;36.20;;;26.79;41.37;95356.88;4991893;28;19913;-51
2023/06/02 08:13:49;;;;;;;;;;;32.40;36.40;;;26.25;42.06;95358.97;4992039;28;19913;-55
2023/06/02 08:16:15;;;;;;;;;;;32.70;36.20;;;26.56;41.38;95356.25;4990399;28;19909;-51
2023/06/02 08:18:40;;;;;;;;;;;32.90;36.00;;;26.90;40.32;95365.22;5007148;28;20382;-54
2023/06/02 08:21:06;;;;;;;;;;;33.10;35.80;;;27.14;40.17;95359.22;4991364;28;19909;-53
2023/06/02 08:23:32;;;;;;;;;;;33.30;35.60;;;27.10;40.35;95354.84;4993310;28;19909;-49
2023/06/02 08:25:59;;;;;;;;;;;33.50;35.30;;;27.15;39.91;95355.31;4994713;28;20004;-51
2023/06/02 08:28:27;;;;;;;;;;;33.70;35.10;;;27.58;39.60;95352.16;4990930;28;19916;-50
2023/06/02 08:30:58;;;;;;;;;;;33.80;34.90;;;27.95;39.22;95353.97;4995531;28;20008;-49
2023/06/02 08:33:24;;;;;;;;;;;34.10;34.80;;;27.87;38.79;95351.22;4994661;28;20400;-49
2023/06/02 08:35:52;;;;;;;;;;;34.30;34.70;;;28.06;37.79;95344.69;4995433;28;20003;-51
2023/06/02 08:38:18;;;;;;;;;;;34.50;34.50;;;28.19;38.43;95345.13;4994444;28;19913;-49
2023/06/02 08:40:47;;;;;;;;;;;34.70;34.20;;;28.25;37.41;95349.06;4995291;28;19909;-50
2023/06/02 08:43:14;;;;;;;;;;;34.80;33.90;;;28.63;37.25;95346.91;4995186;28;20321;-52
2023/06/02 08:45:43;;;;;;;;;;;35.00;33.80;;;28.65;36.48;95347.31;5009346;28;20000;-55
2023/06/02 08:48:16;;;;;;;;;;;35.10;33.50;;;28.91;37.19;95346.19;4995053;28;19956;-51
2023/06/02 08:50:54;;;;;;;;;;;35.20;33.30;;;28.93;36.66;95340.31;4994217;28;20283;-51
2023/06/02 08:53:24;;;;;;;;;;;35.40;33.10;;;28.29;37.32;95341.66;4995077;28;19909;-50
2023/06/02 08:55:50;;;;;;;;;;;35.60;33.00;;;28.28;37.32;95351.03;4995114;28;19916;-51
2023/06/02 08:58:16;;;;;;;;;;;35.60;32.80;;;28.70;36.59;95346.13;4994310;28;19916;-51
2023/06/02 09:00:42;;;;;;;;;;;35.80;32.60;;;28.49;36.60;95346.88;4995118;28;19910;-55
2023/06/02 09:03:12;;;;;;;;;;;35.80;32.40;;;28.77;35.76;95346.16;4993893;28;19910;-50
2023/06/02 09:05:37;;;;;;;;;;;36.00;32.40;;;28.83;35.11;95348.13;5009293;28;19909;-51
2023/06/02 09:08:22;;;;;;;;;;;36.00;32.10;;;28.71;36.02;95353.19;4994047;28;19916;-53
2023/06/02 09:10:48;;;;;;;;;;;36.10;31.90;;;29.17;34.58;95339.59;4994697;28;19916;-52
2023/06/02 09:13:36;;;;;;;;;;;36.20;32.40;;;29.41;34.54;95349.00;5021421;23;19929;-44
2023/06/02 09:16:03;;;;;;;;;;;36.50;31.70;;;29.64;34.32;95345.88;5010519;28;20302;-45
2023/06/02 09:18:30;;;;;;;;;;;36.60;31.60;;;29.53;34.20;95345.09;5014502;28;19909;-48
2023/06/02 09:20:59;;;;;;;;;;;36.80;31.40;;;29.31;34.08;95346.28;5012915;28;19915;-46
2023/06/02 09:23:44;;;;;;;;;;;36.80;31.60;;;29.83;33.47;95336.44;4996418;28;19916;-48
2023/06/02 09:26:21;;;;;;;;;;;36.90;31.30;;;29.92;33.27;95353.28;4990813;28;20577;-45
2023/06/02 09:29:12;;;;;;;;;;;36.90;31.20;;;29.84;33.53;95349.00;4992524;28;20012;-46
2023/06/02 09:31:53;;;;;;;;;;;36.90;30.40;;;30.23;32.88;95345.41;4985368;28;19914;-48
2023/06/02 09:34:24;;;;;;;;;;;37.00;30.20;;;30.76;32.99;95351.84;4987612;28;19909;-45
2023/06/02 09:36:52;;;;;;;;;;;37.10;30.10;;;30.76;31.52;95344.38;4974891;28;19910;-46
2023/06/02 09:39:42;;;;;;;;;;;37.10;30.00;;;30.99;31.42;95354.88;4981433;28;20315;-47
2023/06/02 09:42:10;;;;;;;;;;;37.20;29.90;;;30.99;32.13;95349.38;4986446;28;20004;-46
2023/06/02 09:44:38;;;;;;;;;;;37.30;29.90;;;30.85;31.88;95343.97;4975669;28;20422;-46
2023/06/02 09:47:22;;;;;;;;;;;37.40;29.70;;;30.89;30.96;95345.50;5002354;28;19910;-48
2023/06/02 09:49:48;;;;;;;;;;;37.40;29.50;;;30.84;31.59;95342.44;4974623;28;20348;-52
2023/06/02 09:52:16;;;;;;;;;;;37.40;29.30;;;30.98;31.84;95345.06;4976231;28;20012;-51
2023/06/02 09:54:48;;;;;;;;;;;37.40;29.20;;;30.89;31.31;95339.25;4974541;28;19914;-48
2023/06/02 09:57:16;;;;;;;;;;;37.40;29.20;;;31.01;31.90;95336.03;4980067;28;19921;-45
2023/06/02 09:59:45;;;;;;;;;;;37.40;29.00;;;30.94;31.70;95338.03;4978557;28;19914;-47
2023/06/02 10:02:13;;;;;;;;;;;37.30;28.80;;;31.29;31.38;95331.50;4976008;28;19918;-45
2023/06/02 10:04:38;;;;;;;;;;;37.40;28.90;;;31.31;30.52;95334.66;4994227;28;19910;-44
2023/06/02 10:07:43;;;;;;;;;;;37.50;28.90;;;31.64;31.41;95337.94;4974836;28;19936;-46
2023/06/02 10:10:31;;;;;;;;;;;37.60;28.90;;;31.49;31.09;95335.28;4974039;28;20319;-47
2023/06/02 10:13:28;;;;;;;;;;;37.80;28.80;;;31.87;31.03;95340.88;4983536;28;20016;-48
2023/06/02 10:16:36;;;;;;;;;;;38.00;28.80;;;31.95;29.36;95339.63;4984725;28;19917;-45
2023/06/02 10:19:44;;;;;;;;;;;38.20;28.70;;;31.83;30.23;95342.84;4959600;28;19913;-45
2023/06/02 10:22:47;;;;;;;;;;;38.40;28.50;;;31.58;30.11;95334.81;4991964;28;19978;-45
2023/06/02 10:25:57;;;;;;;;;;;38.60;28.30;;;31.39;30.94;95335.38;4979313;28;19916;-47
2023/06/02 10:28:27;;;;;;;;;;;38.60;28.10;;;31.39;31.04;95327.91;4975781;28;19963;-48
2023/06/02 10:31:11;;;;;;;;;;;38.60;28.00;;;32.13;30.35;95327.66;4973927;28;20372;-45
2023/06/02 10:33:45;;;;;;;;;;;38.60;28.00;;;32.06;29.81;95322.19;4979659;28;19916;-45
2023/06/02 10:36:13;;;;;;;;;;;38.80;28.00;;;31.61;31.10;95327.72;4973982;28;20320;-47
2023/06/02 10:38:39;;;;;;;;;;;39.00;28.00;;;31.67;30.96;95317.84;4996207;28;20012;-47
2023/06/02 10:41:06;;;;;;;;;;;39.00;27.80;;;32.10;29.46;95320.97;4992539;28;19997;-51
2023/06/02 10:43:33;;;;;;;;;;;39.10;27.80;;;31.73;30.69;95318.97;4981288;28;19917;-48
2023/06/02 10:46:20;;;;;;;;;;;39.20;27.70;;;31.44;29.05;95312.94;4983454;28;19917;-46
2023/06/02 10:48:46;;;;;;;;;;;39.20;27.40;;;31.67;28.61;95309.59;4992810;28;19909;-47
2023/06/02 10:51:12;;;;;;;;;;;39.20;27.20;;;31.85;28.34;95307.44;4982759;28;19917;-47
2023/06/02 10:54:02;;;;;;;;;;;39.20;27.10;;;31.98;29.82;95311.25;4993348;28;19909;-45
2023/06/02 10:56:38;;;;;;;;;;;39.20;26.90;;;32.02;28.73;95305.72;4982201;28;19963;-47
2023/06/02 10:59:06;;;;;;;;;;;39.20;26.90;;;31.87;29.64;95299.56;4977516;28;20264;-48
2023/06/02 11:01:52;;;;;;;;;;;39.10;26.70;;;32.05;29.64;95301.38;4981192;28;19918;-51
2023/06/02 11:04:35;;;;;;;;;;;39.10;26.70;;;32.39;28.72;95296.63;4989039;28;19917;-45
2023/06/02 11:07:23;;;;;;;;;;;39.20;26.80;;;31.90;29.26;95297.97;4989632;28;19910;-51
2023/06/02 11:10:03;;;;;;;;;;;39.30;26.70;;;31.58;27.80;95299.03;4978545;28;20287;-45
2023/06/02 11:12:50;;;;;;;;;;;39.30;26.50;;;31.58;28.97;95296.28;4991192;28;20019;-46
2023/06/02 11:15:18;;;;;;;;;;;39.20;26.40;;;31.61;27.62;95300.22;4985833;28;19916;-46
2023/06/02 11:17:47;;;;;;;;;;;39.30;26.30;;;32.08;25.97;95304.06;4990863;28;20294;-49
2023/06/02 11:20:15;;;;;;;;;;;39.30;26.70;;;32.26;27.89;95293.63;4977105;28;21014;-45
2023/06/02 11:22:43;;;;;;;;;;;39.30;26.00;;;32.17;26.92;95292.56;4992274;28;20450;-47